Time;durP1;ratioP1;P1;durP2;ratioP2;P2;SDS_P1;SDS_P2;PMS_P1;PMS_P2;Temp;Humidity;BMP_temperature;BMP_pressure;BME280_temperature;BME280_humidity;BME280_pressure;Samples;Min_cycle;Max_cycle;Signal;HPM_P1;HPM_P2
2021/09/01 00:00:33;;;;;;;21.25;8.73;;;17.20;99.90;;;;;;5035121;28;20094;-58
2021/09/01 00:02:59;;;;;;;17.25;8.38;;;17.10;99.90;;;;;;5034773;28;20037;-58
2021/09/01 00:05:24;;;;;;;19.75;8.88;;;17.10;99.90;;;;;;5035075;28;20052;-58
2021/09/01 00:07:50;;;;;;;18.95;9.27;;;17.20;99.90;;;;;;5035008;28;20020;-59
2021/09/01 00:10:16;;;;;;;27.73;8.90;;;17.20;99.90;;;;;;5034879;28;20018;-59
2021/09/01 00:12:44;;;;;;;19.83;8.45;;;17.20;99.90;;;;;;5034981;28;20155;-59
2021/09/01 00:15:12;;;;;;;20.95;9.13;;;17.30;99.90;;;;;;5034690;28;20105;-58
2021/09/01 00:17:38;;;;;;;17.90;8.38;;;17.20;99.90;;;;;;5034681;28;20049;-58
2021/09/01 00:20:07;;;;;;;20.33;10.43;;;17.20;99.90;;;;;;5034703;28;20045;-59
2021/09/01 00:22:32;;;;;;;23.55;11.43;;;17.10;99.90;;;;;;5034881;28;20394;-59
2021/09/01 00:24:58;;;;;;;22.77;11.65;;;17.10;99.90;;;;;;5033302;28;20021;-59
2021/09/01 00:27:24;;;;;;;23.67;11.80;;;17.00;99.90;;;;;;5034638;28;20022;-58
2021/09/01 00:29:50;;;;;;;21.05;11.23;;;17.00;99.90;;;;;;5034517;28;20029;-58
2021/09/01 00:32:16;;;;;;;22.77;11.00;;;17.00;99.90;;;;;;5034391;28;20370;-58
2021/09/01 00:34:41;;;;;;;19.88;11.75;;;17.00;99.90;;;;;;5034403;28;20030;-59
2021/09/01 00:37:07;;;;;;;22.35;11.85;;;17.00;99.90;;;;;;5034213;28;20092;-58
2021/09/01 00:39:33;;;;;;;23.77;12.05;;;17.00;99.90;;;;;;5034340;28;20041;-58
2021/09/01 00:42:06;;;;;;;20.52;11.95;;;17.10;99.90;;;;;;5034308;28;20386;-59
2021/09/01 00:44:31;;;;;;;20.90;12.48;;;17.10;99.90;;;;;;5033016;28;20390;-58
2021/09/01 00:46:58;;;;;;;25.58;14.20;;;17.20;99.90;;;;;;5034098;28;20289;-58
2021/09/01 00:49:27;;;;;;;23.30;14.30;;;17.00;99.90;;;;;;5034110;28;20030;-59
2021/09/01 00:51:53;;;;;;;27.52;15.40;;;17.10;99.90;;;;;;5034014;28;20021;-59
2021/09/01 00:54:21;;;;;;;23.38;15.20;;;17.10;99.90;;;;;;5034209;28;20117;-59
2021/09/01 00:56:52;;;;;;;24.80;15.23;;;17.00;99.90;;;;;;5033961;28;20399;-59
2021/09/01 00:59:24;;;;;;;29.52;15.48;;;17.00;99.90;;;;;;5034084;28;20029;-59
2021/09/01 01:01:50;;;;;;;29.65;15.48;;;17.10;99.90;;;;;;5032577;28;20368;-59
2021/09/01 01:04:16;;;;;;;26.48;15.40;;;17.10;99.90;;;;;;5033685;28;20036;-59
2021/09/01 01:06:42;;;;;;;26.75;15.30;;;17.10;99.90;;;;;;5033737;28;20026;-59
2021/09/01 01:09:08;;;;;;;24.48;15.18;;;17.20;99.90;;;;;;5033865;28;20014;-59
2021/09/01 01:11:34;;;;;;;26.33;15.55;;;17.20;99.90;;;;;;5033839;28;20030;-59
2021/09/01 01:14:00;;;;;;;25.02;16.27;;;17.20;99.90;;;;;;5033830;28;20033;-59
2021/09/01 01:16:26;;;;;;;27.05;15.18;;;17.30;99.90;;;;;;5033678;28;20476;-59
2021/09/01 01:18:54;;;;;;;30.15;15.93;;;17.30;99.90;;;;;;5033660;28;20029;-59
2021/09/01 01:21:21;;;;;;;25.33;15.43;;;17.40;99.90;;;;;;5033623;28;20048;-59
2021/09/01 01:23:58;;;;;;;27.27;15.43;;;17.40;99.90;;;;;;5033647;28;20029;-59
2021/09/01 01:26:25;;;;;;;26.13;15.55;;;17.50;99.90;;;;;;5032279;28;20083;-59
2021/09/01 01:28:52;;;;;;;27.15;16.00;;;17.70;99.90;;;;;;5033265;28;20021;-59
2021/09/01 01:31:18;;;;;;;23.50;15.32;;;17.70;99.90;;;;;;5033361;28;20033;-59
2021/09/01 01:33:43;;;;;;;24.98;15.70;;;17.50;99.90;;;;;;5033472;28;20029;-59
2021/09/01 01:36:09;;;;;;;25.65;15.50;;;17.50;99.90;;;;;;5032610;28;20041;-59
2021/09/01 01:38:35;;;;;;;27.80;16.15;;;17.60;99.90;;;;;;5033166;28;20030;-59
2021/09/01 01:41:01;;;;;;;24.77;15.50;;;17.60;99.90;;;;;;5033243;28;20067;-59
2021/09/01 01:43:28;;;;;;;31.30;15.57;;;17.50;99.90;;;;;;5032981;28;20026;-59
2021/09/01 01:45:53;;;;;;;23.77;16.63;;;17.40;99.90;;;;;;5033091;28;20437;-59
2021/09/01 01:48:19;;;;;;;26.55;15.98;;;17.50;99.90;;;;;;5031984;28;20021;-59
2021/09/01 01:50:45;;;;;;;25.73;16.63;;;17.50;99.90;;;;;;5033169;28;20120;-59
2021/09/01 01:53:11;;;;;;;28.88;16.60;;;17.50;99.90;;;;;;5033061;28;20029;-59
2021/09/01 01:55:37;;;;;;;30.40;15.65;;;17.60;99.90;;;;;;5033032;28;20505;-59
2021/09/01 01:58:03;;;;;;;24.45;16.30;;;17.70;99.90;;;;;;5032966;28;20501;-59
2021/09/01 02:00:29;;;;;;;23.85;15.68;;;17.60;99.90;;;;;;5033160;28;20084;-59
2021/09/01 02:02:54;;;;;;;34.65;15.93;;;17.60;99.90;;;;;;5031430;28;20060;-59
2021/09/01 02:05:20;;;;;;;25.05;15.73;;;17.30;99.90;;;;;;5033084;28;20045;-59
2021/09/01 02:07:45;;;;;;;24.05;15.30;;;17.20;99.90;;;;;;5031469;28;20025;-59
2021/09/01 02:10:12;;;;;;;30.95;16.38;;;17.30;99.90;;;;;;5032620;28;20032;-59
2021/09/01 02:12:39;;;;;;;25.98;16.10;;;17.50;99.90;;;;;;5031398;28;20022;-59
2021/09/01 02:15:06;;;;;;;25.10;16.17;;;17.60;99.90;;;;;;5032541;28;20026;-59
2021/09/01 02:17:32;;;;;;;26.25;16.23;;;17.70;99.90;;;;;;5031231;28;20505;-59
2021/09/01 02:19:58;;;;;;;29.48;15.52;;;18.10;99.90;;;;;;5032517;28;20171;-59
2021/09/01 02:22:24;;;;;;;24.83;15.65;;;17.70;99.90;;;;;;5032473;28;20025;-59
2021/09/01 02:24:50;;;;;;;32.63;15.98;;;17.70;99.90;;;;;;5032230;28;20047;-59
2021/09/01 02:27:15;;;;;;;23.20;14.93;;;17.80;99.90;;;;;;5031019;28;20107;-58
2021/09/01 02:29:42;;;;;;;23.77;15.40;;;17.70;99.90;;;;;;5032271;28;20438;-59
2021/09/01 02:32:08;;;;;;;23.05;15.40;;;17.50;99.90;;;;;;5032270;28;20026;-58
2021/09/01 02:34:34;;;;;;;29.70;15.57;;;17.50;99.90;;;;;;5032251;28;20076;-59
2021/09/01 02:37:00;;;;;;;25.10;15.82;;;17.50;99.90;;;;;;5032165;28;20057;-59
2021/09/01 02:39:25;;;;;;;23.98;15.15;;;17.50;99.90;;;;;;5032253;28;20498;-60
2021/09/01 02:41:52;;;;;;;25.23;14.75;;;17.60;99.90;;;;;;5032105;28;20698;-59
2021/09/01 02:44:18;;;;;;;28.90;15.88;;;17.90;99.90;;;;;;5032108;28;20029;-58
2021/09/01 02:46:44;;;;;;;24.05;14.35;;;18.00;99.90;;;;;;5031973;28;20087;-59
2021/09/01 02:49:10;;;;;;;27.75;14.85;;;17.80;99.90;;;;;;5031531;28;20467;-59
2021/09/01 02:51:35;;;;;;;24.42;14.32;;;17.90;99.90;;;;;;5032077;28;20505;-59
2021/09/01 02:54:02;;;;;;;39.78;15.00;;;17.70;99.90;;;;;;5032067;28;20025;-58
2021/09/01 02:56:28;;;;;;;24.80;13.60;;;17.70;99.90;;;;;;5031984;28;20116;-59
2021/09/01 02:58:54;;;;;;;26.98;13.20;;;17.70;99.90;;;;;;5031936;28;20052;-59
2021/09/01 03:01:20;;;;;;;26.23;13.10;;;17.60;99.90;;;;;;5030979;28;20034;-59
2021/09/01 03:03:45;;;;;;;21.48;12.23;;;17.50;99.90;;;;;;5032050;28;20071;-58
2021/09/01 03:06:11;;;;;;;21.77;11.32;;;17.40;99.90;;;;;;5031793;28;20022;-59
2021/09/01 03:08:37;;;;;;;24.60;11.73;;;17.30;99.90;;;;;;5032035;28;20441;-59
2021/09/01 03:11:02;;;;;;;26.35;11.73;;;17.20;99.90;;;;;;5031873;28;20191;-59
2021/09/01 03:13:28;;;;;;;27.08;11.52;;;17.20;99.90;;;;;;5030585;28;20061;-58
2021/09/01 03:15:53;;;;;;;22.58;10.98;;;17.20;99.90;;;;;;5031753;28;20029;-58
2021/09/01 03:18:19;;;;;;;24.98;11.10;;;17.20;99.90;;;;;;5031797;28;20033;-59
2021/09/01 03:20:45;;;;;;;20.80;11.00;;;17.20;99.90;;;;;;5032186;28;20025;-59
2021/09/01 03:23:10;;;;;;;22.55;11.05;;;17.10;99.90;;;;;;5030364;28;20033;-58
2021/09/01 03:25:36;;;;;;;27.02;11.18;;;17.10;99.90;;;;;;5031783;28;20030;-59
2021/09/01 03:28:02;;;;;;;22.48;11.98;;;17.00;99.90;;;;;;5031585;28;20385;-59
2021/09/01 03:30:28;;;;;;;21.20;11.05;;;17.20;99.90;;;;;;5031774;28;20025;-59
2021/09/01 03:32:55;;;;;;;21.42;11.85;;;17.20;99.90;;;;;;5031714;28;20029;-59
2021/09/01 03:35:21;;;;;;;27.95;12.10;;;17.10;99.90;;;;;;5031764;28;20030;-59
2021/09/01 03:37:47;;;;;;;23.75;12.13;;;17.10;99.90;;;;;;5031616;28;20100;-59
2021/09/01 03:40:12;;;;;;;25.88;13.02;;;17.30;99.90;;;;;;5031594;28;20199;-59
2021/09/01 03:42:40;;;;;;;26.00;12.73;;;17.50;99.90;;;;;;5030204;28;20486;-59
2021/09/01 03:45:06;;;;;;;23.80;13.13;;;17.30;99.90;;;;;;5031620;28;20026;-59
2021/09/01 03:47:32;;;;;;;21.80;12.40;;;17.10;99.90;;;;;;5031514;28;20072;-59
2021/09/01 03:49:57;;;;;;;22.15;13.35;;;17.00;99.90;;;;;;5031489;28;20382;-59
2021/09/01 03:52:23;;;;;;;23.15;12.18;;;16.90;99.90;;;;;;5031729;28;20156;-58
2021/09/01 03:54:48;;;;;;;29.13;13.60;;;16.90;99.90;;;;;;5030220;28;20044;-59
2021/09/01 03:57:14;;;;;;;24.63;13.48;;;17.10;99.90;;;;;;5031336;28;20029;-58
2021/09/01 03:59:40;;;;;;;25.40;12.95;;;17.20;99.90;;;;;;5033503;28;20037;-58
2021/09/01 04:02:06;;;;;;;20.92;12.98;;;17.00;99.90;;;;;;5035359;28;20026;-59
2021/09/01 04:04:32;;;;;;;24.75;13.68;;;17.00;99.90;;;;;;5035085;28;20025;-58
2021/09/01 04:06:58;;;;;;;32.75;14.13;;;17.00;99.90;;;;;;5035034;28;20026;-58
2021/09/01 04:09:23;;;;;;;21.88;14.07;;;17.00;99.90;;;;;;5034862;28;20105;-59
2021/09/01 04:11:49;;;;;;;29.35;15.15;;;17.10;99.90;;;;;;5034904;28;20439;-58
2021/09/01 04:14:14;;;;;;;24.55;15.18;;;17.10;99.90;;;;;;5033588;28;20112;-59
2021/09/01 04:16:40;;;;;;;28.08;15.60;;;17.10;99.90;;;;;;5034796;28;20574;-59
2021/09/01 04:19:06;;;;;;;25.67;15.60;;;17.00;99.90;;;;;;5034730;28;20021;-58
2021/09/01 04:21:31;;;;;;;28.00;14.80;;;17.30;99.90;;;;;;5034738;28;20044;-59
2021/09/01 04:23:57;;;;;;;25.33;14.32;;;17.20;99.90;;;;;;5034885;28;20103;-59
2021/09/01 04:26:23;;;;;;;25.17;14.82;;;17.10;99.90;;;;;;5033524;28;20136;-59
2021/09/01 04:28:48;;;;;;;23.50;14.45;;;17.00;99.90;;;;;;5034972;28;20025;-58
2021/09/01 04:31:14;;;;;;;23.83;14.82;;;16.90;99.90;;;;;;5066489;28;20105;-58
2021/09/01 04:33:39;;;;;;;29.52;14.82;;;16.90;99.90;;;;;;5034565;28;20117;-59
2021/09/01 04:36:05;;;;;;;24.05;15.98;;;16.90;99.90;;;;;;5034418;28;20140;-59
2021/09/01 04:38:31;;;;;;;28.25;14.75;;;16.90;99.90;;;;;;5034417;28;20025;-59
2021/09/01 04:40:56;;;;;;;29.35;14.50;;;16.90;99.90;;;;;;5034579;28;20030;-59
2021/09/01 04:43:22;;;;;;;23.90;14.43;;;16.90;99.90;;;;;;5034149;28;20497;-58
2021/09/01 04:45:48;;;;;;;24.33;13.88;;;16.80;99.90;;;;;;5034393;28;20021;-59
2021/09/01 04:48:13;;;;;;;24.08;14.65;;;16.80;99.90;;;;;;5034432;28;20028;-59
2021/09/01 04:50:39;;;;;;;22.52;13.02;;;16.80;99.90;;;;;;5034384;28;20018;-59
2021/09/01 04:53:04;;;;;;;25.25;14.13;;;16.80;99.90;;;;;;5032831;28;20115;-59
2021/09/01 04:55:30;;;;;;;21.92;13.77;;;16.80;99.90;;;;;;5034177;28;20033;-59
2021/09/01 04:57:56;;;;;;;28.25;18.50;;;16.80;99.90;;;;;;5034091;28;20036;-58
2021/09/01 05:00:21;;;;;;;29.70;15.32;;;17.10;99.90;;;;;;5065955;28;20037;-58
2021/09/01 05:02:47;;;;;;;25.27;14.48;;;17.20;99.90;;;;;;5033899;28;20083;-59
2021/09/01 05:05:12;;;;;;;30.60;15.05;;;17.10;99.90;;;;;;5034005;28;20101;-58
2021/09/01 05:07:38;;;;;;;25.98;14.18;;;17.10;99.90;;;;;;5033877;28;20025;-59
2021/09/01 05:10:05;;;;;;;25.77;14.52;;;16.90;99.90;;;;;;5033474;28;20021;-58
2021/09/01 05:12:30;;;;;;;24.45;14.68;;;16.80;99.90;;;;;;5033522;28;20490;-59
2021/09/01 05:14:57;;;;;;;26.98;14.77;;;16.70;99.90;;;;;;5031767;28;20056;-59
2021/09/01 05:17:23;;;;;;;29.77;15.43;;;16.70;99.90;;;;;;5032892;28;20037;-59
2021/09/01 05:19:49;;;;;;;51.00;15.63;;;16.80;99.90;;;;;;5030550;28;20034;-59
2021/09/01 05:22:24;;;;;;;25.77;14.02;;;16.90;99.90;;;;;;5029745;28;20065;-59
2021/09/01 05:24:55;;;;;;;22.63;13.73;;;16.90;99.90;;;;;;5018578;28;20029;-59
2021/09/01 05:27:22;;;;;;;29.60;13.85;;;17.00;99.90;;;;;;5014351;28;20090;-59
2021/09/01 05:29:49;;;;;;;30.65;14.95;;;17.00;99.90;;;;;;5022677;28;20037;-59
2021/09/01 05:32:21;;;;;;;25.15;13.88;;;17.00;99.90;;;;;;5026123;28;20017;-59
2021/09/01 05:34:48;;;;;;;25.98;14.15;;;16.90;99.90;;;;;;5027080;28;20033;-59
2021/09/01 05:37:14;;;;;;;24.90;14.07;;;16.90;99.90;;;;;;5029213;28;20104;-59
2021/09/01 05:39:43;;;;;;;26.52;15.07;;;16.90;99.90;;;;;;5025692;28;20032;-59
2021/09/01 05:42:13;;;;;;;31.80;15.48;;;17.30;99.90;;;;;;5026538;28;20033;-59
2021/09/01 05:44:40;;;;;;;27.88;14.85;;;17.40;99.90;;;;;;5060216;28;20037;-59
2021/09/01 05:47:08;;;;;;;26.85;14.55;;;17.50;99.90;;;;;;5030445;28;20112;-59
2021/09/01 05:49:35;;;;;;;27.55;14.70;;;17.50;99.90;;;;;;5028707;28;20025;-59
2021/09/01 05:52:03;;;;;;;23.63;13.75;;;17.50;99.90;;;;;;5023898;28;20154;-58
2021/09/01 05:54:28;;;;;;;34.33;14.18;;;17.40;99.90;;;;;;5015997;28;20080;-59
2021/09/01 05:57:03;;;;;;;26.75;13.98;;;17.30;99.90;;;;;;5022829;28;20037;-59
2021/09/01 05:59:30;;;;;;;27.30;14.23;;;17.30;99.90;;;;;;5015335;28;20116;-59
2021/09/01 06:02:03;;;;;;;21.23;13.20;;;17.30;99.90;;;;;;5012756;28;20087;-60
2021/09/01 06:04:31;;;;;;;29.15;13.40;;;17.20;99.90;;;;;;5021082;28;20033;-60
2021/09/01 06:06:59;;;;;;;29.02;13.98;;;17.40;99.90;;;;;;4999679;28;20083;-59
2021/09/01 06:09:26;;;;;;;26.30;14.05;;;17.50;99.90;;;;;;5022809;28;20032;-60
2021/09/01 06:11:54;;;;;;;24.05;12.80;;;17.60;99.90;;;;;;5021654;28;20025;-59
2021/09/01 06:14:20;;;;;;;20.70;12.57;;;17.50;99.90;;;;;;5024191;28;20033;-59
2021/09/01 06:16:46;;;;;;;29.42;13.65;;;17.70;99.90;;;;;;5020111;28;20393;-59
2021/09/01 06:19:11;;;;;;;33.08;12.95;;;17.80;99.90;;;;;;5024700;28;20029;-59
2021/09/01 06:21:37;;;;;;;22.52;12.50;;;17.70;99.90;;;;;;5057475;28;20096;-59
2021/09/01 06:24:04;;;;;;;26.10;13.13;;;17.80;99.90;;;;;;5048981;28;20029;-58
2021/09/01 06:26:29;;;;;;;29.05;13.38;;;17.90;99.90;;;;;;5026491;28;20466;-58
2021/09/01 06:28:55;;;;;;;26.60;13.07;;;17.90;99.90;;;;;;5029966;28;20025;-59
2021/09/01 06:31:20;;;;;;;28.13;12.85;;;17.90;99.90;;;;;;5018099;28;20030;-59
2021/09/01 06:33:46;;;;;;;30.10;12.85;;;17.90;99.90;;;;;;5023333;28;20093;-59
2021/09/01 06:36:12;;;;;;;29.00;12.98;;;18.00;99.90;;;;;;5022639;28;20501;-59
2021/09/01 06:38:38;;;;;;;26.05;12.57;;;18.10;99.90;;;;;;5023989;28;20034;-59
2021/09/01 06:41:03;;;;;;;34.80;12.93;;;18.30;99.90;;;;;;5025256;28;20478;-59
2021/09/01 06:43:29;;;;;;;29.25;12.63;;;18.40;99.90;;;;;;5026589;28;20033;-59
2021/09/01 06:45:55;;;;;;;24.45;12.00;;;18.30;99.90;;;;;;5023981;28;20036;-59
2021/09/01 06:48:21;;;;;;;20.38;11.80;;;18.00;99.90;;;;;;5025172;28;20033;-59
2021/09/01 06:50:46;;;;;;;30.30;11.23;;;18.00;99.90;;;;;;5023418;28;20034;-59
2021/09/01 06:53:12;;;;;;;27.02;11.00;;;17.90;99.90;;;;;;5021818;28;20102;-59
2021/09/01 06:55:38;;;;;;;24.95;10.88;;;18.00;99.90;;;;;;5023900;28;20041;-60
2021/09/01 06:58:18;;;;;;;23.65;10.13;;;18.10;99.90;;;;;;5031275;28;20120;-60
2021/09/01 07:00:44;;;;;;;21.70;9.55;;;18.10;99.90;;;;;;5029152;28;20525;-60
2021/09/01 07:03:10;;;;;;;19.27;9.32;;;18.10;99.90;;;;;;5027330;28;20354;-60
2021/09/01 07:05:36;;;;;;;21.10;10.18;;;18.30;99.90;;;;;;5022272;28;20033;-60
2021/09/01 07:08:11;;;;;;;24.45;9.73;;;18.10;99.90;;;;;;5025150;28;20040;-60
2021/09/01 07:10:37;;;;;;;22.42;9.75;;;18.00;99.90;;;;;;5022510;28;20045;-59
2021/09/01 07:13:03;;;;;;;21.92;9.15;;;17.90;99.90;;;;;;5025747;28;20033;-60
2021/09/01 07:15:29;;;;;;;20.48;9.48;;;17.90;99.90;;;;;;5025342;28;20032;-60
2021/09/01 07:17:54;;;;;;;19.70;8.95;;;17.90;99.90;;;;;;5023361;28;20029;-60
2021/09/01 07:20:21;;;;;;;22.45;9.05;;;17.80;99.90;;;;;;5025080;28;20033;-60
2021/09/01 07:22:47;;;;;;;23.92;10.20;;;17.80;99.90;;;;;;5022749;28;20225;-60
2021/09/01 07:25:12;;;;;;;22.88;9.15;;;17.90;99.90;;;;;;5030156;28;20120;-60
2021/09/01 07:27:38;;;;;;;27.45;9.50;;;18.00;99.90;;;;;;5025461;28;20117;-60
2021/09/01 07:30:05;;;;;;;15.82;8.85;;;17.90;99.90;;;;;;5023519;28;20079;-60
2021/09/01 07:32:30;;;;;;;19.60;8.82;;;17.90;99.90;;;;;;5022113;28;20114;-60
2021/09/01 07:34:56;;;;;;;21.63;8.75;;;18.00;99.90;;;;;;5026945;28;20124;-60
2021/09/01 07:37:22;;;;;;;23.33;9.45;;;18.00;99.90;;;;;;5031976;28;20045;-60
2021/09/01 07:39:48;;;;;;;17.08;8.20;;;18.00;99.90;;;;;;5026814;28;20083;-60
2021/09/01 07:42:13;;;;;;;22.00;8.98;;;18.00;99.90;;;;;;5031037;28;20494;-60
2021/09/01 07:44:39;;;;;;;20.17;8.10;;;18.20;99.90;;;;;;5029947;28;20068;-60
2021/09/01 07:47:05;;;;;;;24.33;11.18;;;18.30;99.90;;;;;;5022609;28;20029;-60
2021/09/01 07:49:30;;;;;;;24.48;11.63;;;18.30;99.90;;;;;;5016189;28;20513;-59
2021/09/01 07:51:56;;;;;;;30.40;12.82;;;18.40;99.90;;;;;;5011452;28;20022;-59
2021/09/01 07:54:22;;;;;;;32.08;10.80;;;18.50;99.90;;;;;;5004918;28;20044;-60
2021/09/01 07:56:47;;;;;;;16.95;7.40;;;18.50;99.90;;;;;;5023356;28;20592;-59
2021/09/01 07:59:13;;;;;;;16.92;6.10;;;18.50;99.90;;;;;;5028050;28;20083;-60
2021/09/01 08:01:38;;;;;;;18.00;6.93;;;18.70;99.90;;;;;;5026093;28;20059;-60
2021/09/01 08:04:05;;;;;;;16.40;6.70;;;18.80;99.90;;;;;;5025483;28;20095;-60
2021/09/01 08:06:30;;;;;;;15.93;6.05;;;18.70;99.90;;;;;;5028253;28;20018;-60
2021/09/01 08:08:56;;;;;;;15.52;5.30;;;18.80;99.90;;;;;;5026816;28;20137;-60
2021/09/01 08:11:21;;;;;;;14.38;5.82;;;18.90;99.90;;;;;;5026974;28;20022;-60
2021/09/01 08:13:47;;;;;;;15.75;5.50;;;19.10;99.90;;;;;;5021252;28;20055;-60
2021/09/01 08:16:13;;;;;;;24.83;6.32;;;19.40;99.90;;;;;;5017825;28;20777;-60
2021/09/01 08:18:38;;;;;;;19.00;5.78;;;19.60;99.90;;;;;;5018634;28;20037;-60
2021/09/01 08:21:11;;;;;;;16.67;5.25;;;19.60;99.90;;;;;;5020408;28;20490;-60
2021/09/01 08:23:37;;;;;;;23.13;5.57;;;19.60;99.90;;;;;;5024256;28;20033;-60
2021/09/01 08:26:03;;;;;;;22.00;5.47;;;19.40;99.90;;;;;;5023071;28;20036;-60
2021/09/01 08:28:28;;;;;;;17.92;5.60;;;19.50;99.90;;;;;;5024474;28;20056;-60
2021/09/01 08:30:54;;;;;;;22.80;5.68;;;19.70;99.90;;;;;;5022953;28;20033;-60
2021/09/01 08:33:20;;;;;;;16.45;5.65;;;19.80;99.90;;;;;;5025792;28;20065;-60
2021/09/01 08:35:45;;;;;;;17.80;6.10;;;19.80;99.90;;;;;;5019475;28;20033;-60
2021/09/01 08:38:11;;;;;;;16.13;5.80;;;20.00;99.90;;;;;;5029570;28;20039;-59
2021/09/01 08:40:37;;;;;;;14.05;5.00;;;19.80;99.90;;;;;;5028272;28;20061;-60
2021/09/01 08:43:03;;;;;;;17.17;5.65;;;19.40;99.90;;;;;;5026895;28;20029;-59
2021/09/01 08:45:28;;;;;;;15.88;5.50;;;19.30;99.90;;;;;;5025029;28;20478;-60
2021/09/01 08:47:56;;;;;;;14.80;6.25;;;19.20;99.90;;;;;;5025862;28;20028;-59
2021/09/01 08:50:22;;;;;;;12.88;5.57;;;19.10;99.90;;;;;;5026446;28;20022;-59
2021/09/01 08:52:47;;;;;;;15.65;6.03;;;19.10;99.90;;;;;;5028032;28;20060;-59
2021/09/01 08:55:14;;;;;;;18.85;6.43;;;19.30;99.90;;;;;;5026703;28;20039;-59
2021/09/01 08:57:41;;;;;;;18.52;6.95;;;19.90;99.90;;;;;;5030720;28;20052;-60
2021/09/01 09:00:08;;;;;;;14.82;7.10;;;20.10;99.90;;;;;;5023878;28;20021;-60
2021/09/01 09:02:34;;;;;;;17.33;7.53;;;20.20;99.90;;;;;;5029797;28;20022;-60
2021/09/01 09:05:08;;;;;;;15.52;6.90;;;20.20;99.90;;;;;;5028636;28;20076;-60
2021/09/01 09:07:53;;;;;;;19.48;6.97;;;20.20;99.90;;;;;;5030342;28;20029;-60
2021/09/01 09:10:34;;;;;;;24.35;6.93;;;20.40;99.90;;;;;;5029600;28;20021;-60
2021/09/01 09:13:05;;;;;;;18.33;7.30;;;20.10;99.90;;;;;;5026697;28;20156;-59
2021/09/01 09:15:31;;;;;;;12.38;6.78;;;20.50;99.90;;;;;;5029175;28;20323;-59
2021/09/01 09:17:57;;;;;;;17.60;7.18;;;20.50;99.90;;;;;;5027937;28;20025;-60
2021/09/01 09:20:28;;;;;;;16.63;6.80;;;20.60;99.90;;;;;;5026905;28;20079;-59
2021/09/01 09:22:54;;;;;;;18.52;7.30;;;20.80;99.90;;;;;;5017103;28;20367;-60
2021/09/01 09:25:30;;;;;;;15.07;7.35;;;20.80;99.90;;;;;;5021865;28;20027;-59
2021/09/01 09:28:00;;;;;;;18.88;7.90;;;20.80;99.90;;;;;;5010106;28;20599;-60
2021/09/01 09:30:31;;;;;;;16.45;7.40;;;20.80;99.90;;;;;;5022485;28;20100;-59
2021/09/01 09:33:14;;;;;;;16.17;6.85;;;20.60;99.90;;;;;;5019034;28;20017;-59
2021/09/01 09:36:02;;;;;;;16.23;7.80;;;20.80;99.90;;;;;;5019933;28;20120;-59
2021/09/01 09:38:45;;;;;;;19.88;7.32;;;21.10;99.90;;;;;;5024654;28;20037;-59
2021/09/01 09:41:23;;;;;;;16.38;7.90;;;21.00;99.90;;;;;;5015824;28;20032;-60
2021/09/01 09:43:51;;;;;;;15.00;7.28;;;20.50;99.90;;;;;;5021964;28;20555;-59
2021/09/01 09:46:17;;;;;;;16.52;7.80;;;20.40;99.90;;;;;;5016704;28;20561;-60
2021/09/01 09:48:44;;;;;;;18.30;7.63;;;20.20;99.90;;;;;;5021823;28;20116;-60
2021/09/01 09:51:37;;;;;;;15.65;7.60;;;20.20;99.90;;;;;;5024291;28;20136;-60
2021/09/01 09:54:22;;;;;;;17.10;8.70;;;20.50;99.90;;;;;;5023828;28;20033;-59
2021/09/01 09:56:49;;;;;;;17.23;7.90;;;20.60;99.90;;;;;;5025857;28;20030;-59
2021/09/01 09:59:17;;;;;;;18.42;8.07;;;20.60;99.90;;;;;;5013723;28;20029;-59
2021/09/01 10:01:44;;;;;;;19.13;8.55;;;20.40;99.90;;;;;;5021098;28;20038;-60
2021/09/01 10:04:10;;;;;;;21.63;10.13;;;20.30;99.90;;;;;;5016357;28;20493;-59
2021/09/01 10:06:35;;;;;;;18.05;8.60;;;20.20;99.90;;;;;;5029439;28;20025;-59
2021/09/01 10:09:03;;;;;;;21.15;9.45;;;20.20;99.90;;;;;;5030657;28;20029;-59
2021/09/01 10:11:29;;;;;;;21.25;9.20;;;20.30;99.90;;;;;;5026801;28;20029;-59
2021/09/01 10:13:55;;;;;;;12.10;8.27;;;20.10;99.90;;;;;;5027773;28;20111;-59
2021/09/01 10:16:20;;;;;;;21.92;9.55;;;20.20;99.90;;;;;;5025485;28;20204;-60
2021/09/01 10:18:58;;;;;;;19.33;9.05;;;19.90;99.90;;;;;;5017914;28;20040;-60
2021/09/01 10:21:32;;;;;;;20.98;9.65;;;20.20;99.90;;;;;;5021049;28;20136;-60
2021/09/01 10:24:14;;;;;;;17.60;9.02;;;20.50;99.90;;;;;;5028001;28;20429;-60
2021/09/01 10:26:40;;;;;;;20.65;8.50;;;20.90;99.90;;;;;;5018017;28;20029;-60
2021/09/01 10:29:25;;;;;;;17.50;8.23;;;20.80;99.90;;;;;;5013827;28;20063;-59
2021/09/01 10:32:24;;;;;;;15.60;8.75;;;21.00;99.90;;;;;;5018064;28;20490;-59
2021/09/01 10:35:16;;;;;;;16.92;8.25;;;21.90;99.90;;;;;;4999609;28;20539;-60
2021/09/01 10:37:43;;;;;;;14.35;7.13;;;22.90;99.90;;;;;;5026591;28;20057;-60
2021/09/01 10:40:13;;;;;;;16.17;8.68;;;23.60;99.90;;;;;;5025849;28;20033;-60
2021/09/01 10:42:45;;;;;;;19.30;7.93;;;23.00;99.90;;;;;;5021500;28;20131;-60
2021/09/01 10:45:23;;;;;;;16.55;8.45;;;22.00;99.90;;;;;;5023457;28;20033;-60
2021/09/01 10:47:52;;;;;;;17.10;8.38;;;21.80;99.90;;;;;;5021451;28;20021;-60
2021/09/01 10:50:40;;;;;;;17.17;9.00;;;21.60;99.90;;;;;;5027523;28;20025;-60
2021/09/01 10:53:26;;;;;;;14.23;8.23;;;21.40;99.90;;;;;;5027539;28;20036;-60
2021/09/01 10:55:59;;;;;;;16.88;8.57;;;21.40;99.90;;;;;;5026027;28;20498;-60
2021/09/01 10:58:30;;;;;;;11.98;7.65;;;21.30;99.90;;;;;;5020510;28;20101;-60
2021/09/01 11:01:16;;;;;;;14.40;7.57;;;21.60;99.90;;;;;;5020830;28;20042;-60
2021/09/01 11:03:48;;;;;;;16.45;7.72;;;22.00;99.90;;;;;;5007328;28;20034;-60
2021/09/01 11:06:16;;;;;;;19.52;7.70;;;22.10;99.90;;;;;;5005549;28;20419;-60
2021/09/01 11:09:07;;;;;;;15.85;8.48;;;22.10;99.90;;;;;;5007123;28;20391;-60
2021/09/01 11:11:46;;;;;;;13.55;7.35;;;22.30;99.90;;;;;;5008191;28;20076;-59
2021/09/01 11:14:26;;;;;;;14.65;8.18;;;22.30;99.90;;;;;;5007930;28;20653;-59
2021/09/01 11:16:52;;;;;;;17.25;8.77;;;22.30;99.90;;;;;;5008595;28;20032;-60
2021/09/01 11:19:20;;;;;;;18.35;9.23;;;21.70;99.90;;;;;;5009163;28;20108;-60
2021/09/01 11:21:46;;;;;;;15.02;8.77;;;21.70;99.90;;;;;;5043617;28;20022;-60
2021/09/01 11:24:14;;;;;;;16.92;8.65;;;21.40;99.90;;;;;;5028054;28;20021;-60
2021/09/01 11:26:40;;;;;;;16.55;9.20;;;21.30;99.90;;;;;;5031371;28;20029;-59
2021/09/01 11:29:07;;;;;;;15.05;8.38;;;21.50;99.90;;;;;;5029828;28;20075;-59
2021/09/01 11:31:42;;;;;;;13.95;9.05;;;21.90;99.90;;;;;;5031251;28;20017;-60
2021/09/01 11:34:09;;;;;;;15.75;8.13;;;22.30;99.90;;;;;;5031754;28;20052;-60
2021/09/01 11:36:35;;;;;;;14.77;8.32;;;22.80;99.90;;;;;;5031160;28;20129;-60
2021/09/01 11:39:01;;;;;;;17.15;8.80;;;23.10;99.90;;;;;;5031491;28;20100;-60
2021/09/01 11:41:27;;;;;;;15.93;8.20;;;23.10;99.90;;;;;;5031616;28;20133;-60
2021/09/01 11:44:01;;;;;;;14.77;7.43;;;23.30;99.90;;;;;;5031488;28;20033;-60
2021/09/01 11:46:32;;;;;;;16.65;8.43;;;23.30;99.90;;;;;;5031322;28;20363;-60
2021/09/01 11:49:18;;;;;;;14.57;7.65;;;23.10;99.90;;;;;;5029901;28;20028;-60
2021/09/01 11:51:46;;;;;;;14.73;8.38;;;22.50;99.90;;;;;;5030575;28;20046;-60
2021/09/01 11:54:14;;;;;;;15.23;7.97;;;22.60;99.90;;;;;;5029390;28;20029;-60
2021/09/01 11:56:40;;;;;;;12.82;7.70;;;22.80;99.90;;;;;;5031581;28;20036;-60
2021/09/01 11:59:08;;;;;;;14.88;8.50;;;22.60;99.90;;;;;;5030254;28;20045;-60
2021/09/01 12:01:55;;;;;;;14.68;8.50;;;22.60;99.90;;;;;;5031204;28;20415;-60
2021/09/01 12:04:22;;;;;;;19.70;8.45;;;22.30;99.90;;;;;;5029538;28;20029;-60
2021/09/01 12:06:53;;;;;;;16.83;8.20;;;21.70;99.90;;;;;;5031242;28;20033;-60
2021/09/01 12:09:20;;;;;;;12.68;8.23;;;21.30;99.90;;;;;;5031067;28;20461;-60
2021/09/01 12:11:51;;;;;;;17.35;8.38;;;21.20;99.90;;;;;;5031366;28;20105;-60
2021/09/01 12:14:23;;;;;;;17.58;7.97;;;21.30;99.90;;;;;;5031394;28;20071;-60
2021/09/01 12:16:50;;;;;;;13.10;7.70;;;21.40;99.90;;;;;;5031170;28;20025;-59
2021/09/01 12:19:16;;;;;;;12.35;7.57;;;21.50;99.90;;;;;;5031448;28;20502;-59
2021/09/01 12:21:44;;;;;;;13.98;8.13;;;21.40;99.90;;;;;;5034899;28;20026;-60
2021/09/01 12:24:16;;;;;;;11.18;7.78;;;21.80;99.90;;;;;;5033839;28;20493;-60
2021/09/01 12:26:50;;;;;;;11.40;7.22;;;22.10;99.90;;;;;;5035301;28;20470;-60
2021/09/01 12:29:26;;;;;;;19.00;9.05;;;22.70;99.90;;;;;;5034861;28;20018;-59
2021/09/01 12:31:53;;;;;;;12.32;7.95;;;23.20;99.90;;;;;;5034789;28;20021;-60
2021/09/01 12:34:47;;;;;;;15.40;8.55;;;23.50;99.90;;;;;;5034956;28;20025;-60